createdAt,value
2018-05-12T00:01:05.708Z,21.40
2018-05-12T00:03:37.732Z,20.27
2018-05-12T00:06:05.780Z,23.27
2018-05-12T00:08:33.840Z,21.52
2018-05-12T00:11:05.580Z,22.30
2018-05-12T00:13:38.492Z,22.70
2018-05-12T00:16:10.176Z,22.92
2018-05-12T00:18:38.226Z,24.95
2018-05-12T00:21:11.960Z,20.75
2018-05-12T00:23:40.941Z,21.75
2018-05-12T00:26:09.980Z,23.05
2018-05-12T00:28:38.919Z,22.60
2018-05-12T00:31:07.831Z,22.35
2018-05-12T00:33:37.632Z,25.62
2018-05-12T00:36:06.572Z,23.62
2018-05-12T00:38:34.600Z,23.35
2018-05-12T00:41:17.624Z,26.33
2018-05-12T00:43:45.641Z,22.15
2018-05-12T00:46:14.564Z,24.77
2018-05-12T00:48:42.596Z,23.65
2018-05-12T00:51:11.521Z,24.63
2018-05-12T00:53:43.153Z,22.27
2018-05-12T00:56:11.160Z,23.30
2018-05-12T00:58:41.067Z,22.77
2018-05-12T01:01:09.060Z,23.70
2018-05-12T01:03:42.113Z,24.52
2018-05-12T01:06:15.003Z,23.23
2018-05-12T01:08:47.904Z,24.65
2018-05-12T01:11:16.893Z,25.58
2018-05-12T01:13:45.876Z,26.23
2018-05-12T01:16:13.892Z,26.25
2018-05-12T01:18:42.844Z,27.92
2018-05-12T01:21:11.852Z,27.52
2018-05-12T01:23:46.823Z,25.95
2018-05-12T01:26:15.776Z,27.42
2018-05-12T01:28:45.480Z,25.10
2018-05-12T01:31:20.644Z,26.27
2018-05-12T01:33:57.136Z,27.60
2018-05-12T01:36:25.944Z,28.27
2018-05-12T01:39:05.884Z,28.98
2018-05-12T01:41:38.094Z,36.50
2018-05-12T01:44:06.879Z,29.73
2018-05-12T01:46:36.696Z,25.80
2018-05-12T01:49:06.488Z,29.80
2018-05-12T01:51:36.504Z,27.58
2018-05-12T01:54:14.699Z,31.35
2018-05-12T01:56:42.731Z,28.73
2018-05-12T01:59:22.617Z,28.80
2018-05-12T02:01:53.659Z,29.05
2018-05-12T02:04:21.708Z,29.75
2018-05-12T02:06:51.656Z,27.50
2018-05-12T02:09:24.287Z,27.37
2018-05-12T02:11:56.695Z,30.48
2018-05-12T02:14:24.895Z,27.52
2018-05-12T02:16:55.588Z,27.60
2018-05-12T02:19:26.311Z,27.30
2018-05-12T02:21:54.319Z,29.65
2018-05-12T02:24:24.012Z,30.17
2018-05-12T02:26:55.867Z,29.67
2018-05-12T02:29:31.324Z,29.92
2018-05-12T02:32:10.435Z,32.80
2018-05-12T02:34:45.529Z,39.88
2018-05-12T02:37:14.488Z,36.38
2018-05-12T02:39:43.464Z,33.47
2018-05-12T02:42:13.475Z,33.53
2018-05-12T02:44:43.528Z,31.58
2018-05-12T02:47:24.020Z,29.85
2018-05-12T02:49:56.796Z,30.85
2018-05-12T02:52:25.704Z,28.52
2018-05-12T02:55:00.844Z,27.27
2018-05-12T02:57:37.415Z,26.15
2018-05-12T03:00:23.999Z,25.90
2018-05-12T03:02:58.208Z,27.10
2018-05-12T03:05:29.315Z,26.27
2018-05-12T03:07:57.337Z,30.62
2018-05-12T03:10:26.112Z,30.98
2018-05-12T03:12:55.032Z,24.35
2018-05-12T03:15:26.859Z,27.80
2018-05-12T03:18:05.359Z,32.60
2018-05-12T03:20:35.068Z,29.27
2018-05-12T03:23:09.351Z,29.27
2018-05-12T03:25:42.335Z,31.17
2018-05-12T03:28:12.291Z,31.60
2018-05-12T03:30:53.069Z,29.02
2018-05-12T03:33:37.571Z,33.13
2018-05-12T03:36:06.519Z,31.80
2018-05-12T03:38:34.559Z,35.17
2018-05-12T03:41:16.279Z,37.78
2018-05-12T03:43:44.291Z,31.67
2018-05-12T03:46:30.635Z,33.10
2018-05-12T03:49:09.891Z,36.15
2018-05-12T03:51:42.614Z,31.90
2018-05-12T03:54:11.532Z,30.70
2018-05-12T03:56:52.772Z,31.02
2018-05-12T03:59:41.891Z,33.92
2018-05-12T04:02:10.831Z,34.20
2018-05-12T04:04:51.722Z,38.90
2018-05-12T04:10:43.036Z,45.28
2018-05-12T04:13:11.055Z,51.55
2018-05-12T04:15:40.007Z,90.20
2018-05-12T04:18:16.130Z,164.07
2018-05-12T04:20:48.195Z,50.30
2018-05-12T04:23:19.883Z,41.47
2018-05-12T04:25:51.859Z,43.53
2018-05-12T04:28:24.518Z,46.80
2018-05-12T04:30:56.299Z,41.97
2018-05-12T04:33:27.962Z,43.35
2018-05-12T04:35:56.743Z,40.50
2018-05-12T04:38:28.679Z,38.17
2018-05-12T04:40:57.599Z,34.45
2018-05-12T04:43:45.150Z,38.35
2018-05-12T04:46:16.860Z,42.47
2018-05-12T04:48:44.889Z,41.22
2018-05-12T04:51:14.847Z,39.97
2018-05-12T04:53:46.007Z,38.80
2018-05-12T04:56:14.791Z,40.53
2018-05-12T04:58:42.826Z,40.90
2018-05-12T05:01:17.236Z,44.20
2018-05-12T05:03:59.610Z,38.65
2018-05-12T05:06:29.599Z,39.70
2018-05-12T05:09:09.051Z,39.78
2018-05-12T05:11:50.759Z,37.63
2018-05-12T05:14:28.875Z,47.47
2018-05-12T05:16:58.847Z,43.63
2018-05-12T05:19:35.307Z,48.55
2018-05-12T05:22:09.932Z,46.10
2018-05-12T05:27:45.934Z,42.93
2018-05-12T05:30:14.767Z,39.47
2018-05-12T05:35:56.763Z,36.10
2018-05-12T05:41:23.149Z,32.90
2018-05-12T05:44:08.312Z,32.27
2018-05-12T05:49:34.343Z,30.23
2018-05-12T05:54:58.667Z,29.47
2018-05-12T05:57:40.820Z,28.30
2018-05-12T06:03:25.935Z,25.83
2018-05-12T06:06:10.595Z,27.30
2018-05-12T06:08:38.623Z,28.30
2018-05-12T06:11:28.839Z,26.30
2018-05-12T06:14:00.477Z,26.47
2018-05-12T06:16:34.190Z,24.33
2018-05-12T06:19:02.234Z,26.40
2018-05-12T06:21:31.018Z,25.60
2018-05-12T06:24:19.082Z,25.90
2018-05-12T06:29:54.210Z,27.43
2018-05-12T06:32:23.010Z,27.37
2018-05-12T06:34:51.806Z,29.47
2018-05-12T06:37:20.775Z,35.63
2018-05-12T06:39:51.831Z,28.27
2018-05-12T06:42:22.658Z,28.43
2018-05-12T06:44:56.918Z,26.57
2018-05-12T06:47:24.958Z,26.20
2018-05-12T06:50:01.551Z,24.83
2018-05-12T06:52:34.746Z,24.03
2018-05-12T06:55:10.503Z,23.30
2018-05-12T06:57:40.414Z,26.33
2018-05-12T07:00:14.659Z,21.17
2018-05-12T07:02:42.702Z,22.17
2018-05-12T07:05:10.734Z,20.83
2018-05-12T07:07:39.518Z,20.50
2018-05-12T07:10:08.567Z,19.57
2018-05-12T07:12:40.462Z,21.47
2018-05-12T07:15:11.686Z,20.13
2018-05-12T07:17:41.874Z,20.80
2018-05-12T07:20:11.838Z,20.23
2018-05-12T07:22:40.798Z,19.80
2018-05-12T07:25:08.806Z,20.43
2018-05-12T07:27:37.583Z,19.77
2018-05-12T07:30:07.594Z,18.73
2018-05-12T07:32:46.579Z,19.17
2018-05-12T07:35:14.618Z,19.30
2018-05-12T07:37:44.296Z,20.60
2018-05-12T07:40:12.314Z,18.97
2018-05-12T07:42:40.322Z,19.83
2018-05-12T07:45:11.666Z,19.57
2018-05-12T07:47:39.714Z,19.97
2018-05-12T07:50:11.198Z,18.83
2018-05-12T07:52:39.222Z,19.80
2018-05-12T07:55:07.242Z,19.83
2018-05-12T07:57:37.642Z,17.67
2018-05-12T08:00:08.778Z,17.33
2018-05-12T08:02:40.000Z,18.47
2018-05-12T08:05:08.326Z,73.33
2018-05-12T08:07:37.350Z,22.63
2018-05-12T08:10:08.054Z,17.07
2018-05-12T08:12:40.695Z,19.07
2018-05-12T08:15:14.452Z,18.33
2018-05-12T08:17:50.805Z,17.03
2018-05-12T08:20:26.505Z,17.87
2018-05-12T08:22:56.466Z,17.00
2018-05-12T08:25:24.489Z,16.33
2018-05-12T08:27:52.506Z,18.43
2018-05-12T08:30:20.525Z,18.27
2018-05-12T08:32:49.469Z,16.83
2018-05-12T08:35:17.482Z,17.77
2018-05-12T08:37:49.929Z,19.47
2018-05-12T08:40:19.780Z,16.30
2018-05-12T08:43:04.209Z,17.10
2018-05-12T08:45:32.999Z,16.57
2018-05-12T08:48:06.976Z,16.00
2018-05-12T08:50:38.113Z,14.57
2018-05-12T08:53:07.866Z,16.27
2018-05-12T08:55:35.882Z,15.10
2018-05-12T08:58:17.734Z,15.20
2018-05-12T09:00:52.765Z,14.07
2018-05-12T09:03:22.765Z,14.80
2018-05-12T09:05:55.729Z,13.63
2018-05-12T09:08:28.009Z,11.67
2018-05-12T09:11:02.834Z,12.03
2018-05-12T09:13:30.885Z,12.10
2018-05-12T09:16:05.489Z,12.73
2018-05-12T09:18:35.449Z,14.70
2018-05-12T09:21:04.238Z,13.60
2018-05-12T09:23:36.122Z,13.20
2018-05-12T09:26:05.065Z,13.73
2018-05-12T09:28:33.077Z,13.60
2018-05-12T09:31:01.102Z,14.37
2018-05-12T09:33:29.121Z,14.37
2018-05-12T09:36:09.201Z,15.00
2018-05-12T09:38:37.213Z,14.77
2018-05-12T09:41:07.198Z,14.67
2018-05-12T09:43:38.242Z,16.83
2018-05-12T09:46:16.833Z,13.90
2018-05-12T09:48:45.609Z,13.17
2018-05-12T09:51:14.757Z,13.80
2018-05-12T09:53:42.793Z,12.77
2018-05-12T09:56:17.830Z,12.50
2018-05-12T09:58:57.170Z,12.03
2018-05-12T10:01:25.189Z,12.63
2018-05-12T10:03:57.321Z,12.70
2018-05-12T10:06:38.421Z,15.80
2018-05-12T10:09:09.125Z,12.90
2018-05-12T10:11:37.140Z,11.63
2018-05-12T10:14:06.805Z,12.63
2018-05-12T10:16:34.810Z,11.10
2018-05-12T10:19:05.505Z,12.10
2018-05-12T10:21:33.514Z,12.63
2018-05-12T10:24:02.297Z,11.30
2018-05-12T10:26:31.070Z,10.50
2018-05-12T10:29:01.055Z,14.00
2018-05-12T10:31:29.077Z,11.90
2018-05-12T10:33:59.745Z,10.43
2018-05-12T10:36:31.121Z,10.50
2018-05-12T10:38:59.238Z,8.77
2018-05-12T10:41:27.909Z,10.27
2018-05-12T10:44:01.673Z,10.17
2018-05-12T10:46:30.681Z,8.80
2018-05-12T10:51:55.901Z,11.13
2018-05-12T10:54:23.918Z,9.87
2018-05-12T10:56:56.929Z,8.97
2018-05-12T10:59:29.717Z,9.13
2018-05-12T11:01:59.692Z,8.63
2018-05-12T11:04:44.818Z,8.10
2018-05-12T11:07:13.537Z,7.67
2018-05-12T11:09:45.930Z,8.13
2018-05-12T11:12:14.786Z,7.63
2018-05-12T11:14:42.790Z,8.60
2018-05-12T11:17:10.804Z,8.93
2018-05-12T11:19:50.405Z,7.90
2018-05-12T11:22:20.344Z,8.63
2018-05-12T11:24:48.381Z,8.40
2018-05-12T11:27:16.362Z,6.93
2018-05-12T11:29:54.586Z,7.10
2018-05-12T11:32:26.489Z,7.57
2018-05-12T11:34:58.241Z,8.73
2018-05-12T11:37:30.881Z,7.93
2018-05-12T11:40:00.821Z,7.43
2018-05-12T11:42:28.849Z,7.33
2018-05-12T11:44:58.780Z,7.00
2018-05-12T11:47:27.557Z,6.70
2018-05-12T11:49:57.341Z,6.60
2018-05-12T11:52:26.125Z,7.53
2018-05-12T11:54:55.065Z,6.30
2018-05-12T11:57:24.065Z,5.97
2018-05-12T11:59:52.073Z,6.83
2018-05-12T12:02:25.183Z,5.43
2018-05-12T12:04:54.121Z,5.17
2018-05-12T12:07:23.093Z,5.50
2018-05-12T12:09:56.581Z,6.80
2018-05-12T12:12:28.361Z,5.57
2018-05-12T12:14:58.389Z,4.87
2018-05-12T12:17:31.957Z,4.70
2018-05-12T12:20:01.005Z,4.90
2018-05-12T12:22:30.925Z,4.80
2018-05-12T12:24:59.740Z,5.40
2018-05-12T12:27:29.709Z,5.73
2018-05-12T12:30:01.924Z,6.33
2018-05-12T12:32:29.973Z,5.93
2018-05-12T12:34:58.777Z,5.53
2018-05-12T12:37:27.729Z,7.30
2018-05-12T12:39:57.453Z,5.53
2018-05-12T12:42:27.216Z,5.60
2018-05-12T12:44:58.622Z,4.80
2018-05-12T12:47:38.891Z,7.67
2018-05-12T12:50:06.904Z,15.60
2018-05-12T12:52:34.916Z,4.93
2018-05-12T12:55:07.560Z,7.43
2018-05-12T12:57:41.358Z,5.73
2018-05-12T13:00:10.353Z,5.73
2018-05-12T13:02:39.341Z,5.63
2018-05-12T13:05:11.213Z,5.70
2018-05-12T13:07:43.069Z,5.67
2018-05-12T13:10:22.368Z,8.70
2018-05-12T13:12:56.089Z,4.10
2018-05-12T13:15:28.915Z,4.57
2018-05-12T13:17:56.908Z,5.73
2018-05-12T13:20:28.316Z,3.70
2018-05-12T13:22:59.976Z,4.00
2018-05-12T13:25:28.024Z,3.70
2018-05-12T13:27:57.797Z,3.93
2018-05-12T13:30:29.784Z,4.20
2018-05-12T13:32:59.712Z,6.10
2018-05-12T13:35:31.592Z,4.33
2018-05-12T13:37:59.644Z,5.33
2018-05-12T13:40:27.688Z,4.80
2018-05-12T13:42:57.692Z,4.87
2018-05-12T13:45:25.700Z,4.80
2018-05-12T13:47:54.622Z,5.40
2018-05-12T13:50:24.417Z,4.53
2018-05-12T13:53:07.580Z,5.33
2018-05-12T13:55:39.823Z,5.50
2018-05-12T13:58:28.304Z,4.97
2018-05-12T14:01:14.513Z,5.10
2018-05-12T14:04:03.978Z,4.90
2018-05-12T14:06:32.012Z,4.70
2018-05-12T14:09:02.700Z,5.37
2018-05-12T14:11:43.136Z,4.60
2018-05-12T14:14:17.088Z,4.60
2018-05-12T14:16:55.802Z,5.30
2018-05-12T14:19:25.828Z,4.33
2018-05-12T14:21:58.537Z,6.83
2018-05-12T14:24:29.220Z,5.20
2018-05-12T14:27:01.840Z,5.23
2018-05-12T14:29:35.896Z,4.77
2018-05-12T14:32:23.617Z,4.33
2018-05-12T14:35:01.945Z,4.53
2018-05-12T14:37:35.917Z,5.30
2018-05-12T14:40:03.925Z,4.53
2018-05-12T14:42:32.924Z,4.00
2018-05-12T14:45:08.584Z,7.10
2018-05-12T14:47:36.595Z,4.80
2018-05-12T14:50:24.108Z,4.87
2018-05-12T14:53:07.844Z,3.93
2018-05-12T14:55:35.872Z,7.00
2018-05-12T14:58:09.680Z,5.37
2018-05-12T15:00:39.615Z,18.00
2018-05-12T15:03:13.233Z,6.33
2018-05-12T15:05:41.252Z,6.63
2018-05-12T15:08:09.252Z,6.30
2018-05-12T15:10:40.797Z,8.23
2018-05-12T15:13:12.268Z,7.00
2018-05-12T15:15:44.241Z,6.40
2018-05-12T15:18:18.888Z,7.63
2018-05-12T15:20:48.320Z,5.77
2018-05-12T15:23:16.804Z,6.27
2018-05-12T15:26:04.104Z,7.20
2018-05-12T15:28:33.016Z,9.37
2018-05-12T15:31:11.242Z,5.83
2018-05-12T15:33:40.164Z,5.80
2018-05-12T15:36:11.409Z,8.67
2018-05-12T15:38:39.372Z,6.07
2018-05-12T15:41:08.324Z,5.70
2018-05-12T15:43:41.018Z,5.77
2018-05-12T15:49:04.476Z,6.13
2018-05-12T15:51:39.400Z,5.50
2018-05-12T15:54:07.403Z,5.60
2018-05-12T15:59:49.064Z,6.30
2018-05-12T16:02:24.308Z,6.20
2018-05-12T16:08:07.060Z,7.00
2018-05-12T16:10:45.466Z,6.73
2018-05-12T16:13:23.316Z,6.77
2018-05-12T16:15:58.628Z,6.30
2018-05-12T16:18:26.624Z,7.00
2018-05-12T16:21:00.296Z,6.77
2018-05-12T16:23:31.640Z,7.87
2018-05-12T16:26:03.108Z,7.60
2018-05-12T16:28:39.381Z,7.57
2018-05-12T16:31:20.861Z,7.60
2018-05-12T16:36:50.563Z,8.77
2018-05-12T16:39:18.584Z,6.70
2018-05-12T16:41:55.092Z,6.20
2018-05-12T16:44:44.868Z,6.50
2018-05-12T16:47:14.860Z,6.80
2018-05-12T16:49:55.332Z,6.70
2018-05-12T16:55:17.677Z,6.57
2018-05-12T17:00:43.435Z,6.53
2018-05-12T17:03:11.547Z,6.90
2018-05-12T17:05:40.460Z,6.50
2018-05-12T17:08:15.136Z,9.53
2018-05-12T17:19:30.639Z,7.83
2018-05-12T17:22:10.515Z,7.53
2018-05-12T17:30:26.899Z,7.43
2018-05-12T17:36:05.303Z,8.73
2018-05-12T17:41:32.887Z,9.93
2018-05-12T17:44:00.963Z,16.63
2018-05-12T17:46:37.371Z,9.30
2018-05-12T17:57:47.228Z,7.87
2018-05-12T18:00:31.927Z,8.80
2018-05-12T18:02:59.947Z,7.47
2018-05-12T18:05:28.898Z,7.50
2018-05-12T18:07:58.887Z,7.40
2018-05-12T18:10:33.551Z,8.40
2018-05-12T18:13:01.568Z,8.03
2018-05-12T18:15:35.883Z,8.57
2018-05-12T18:18:17.414Z,9.40
2018-05-12T18:20:55.351Z,9.87
2018-05-12T18:23:33.195Z,13.13
2018-05-12T18:26:03.291Z,9.50
2018-05-12T18:28:35.255Z,10.27
2018-05-12T18:31:24.872Z,8.37
2018-05-12T18:33:52.903Z,13.33
2018-05-12T18:36:21.091Z,10.70
2018-05-12T18:38:49.271Z,14.60
2018-05-12T18:41:18.072Z,10.33
2018-05-12T18:49:34.578Z,11.23
2018-05-12T18:52:08.824Z,9.67
2018-05-12T18:54:50.315Z,9.87
2018-05-12T18:57:23.677Z,9.43
2018-05-12T19:00:16.062Z,9.10
2018-05-12T19:02:53.029Z,10.20
2018-05-12T19:05:21.979Z,8.90
2018-05-12T19:07:50.980Z,9.97
2018-05-12T19:10:21.002Z,9.53
2018-05-12T19:12:53.506Z,9.43
2018-05-12T19:15:25.208Z,16.93
2018-05-12T19:17:54.346Z,10.07
2018-05-12T19:20:23.126Z,10.73
2018-05-12T19:22:51.135Z,9.60
2018-05-12T19:25:19.155Z,10.63
2018-05-12T19:27:51.834Z,9.87
2018-05-12T19:30:23.698Z,10.90
2018-05-12T19:32:56.455Z,10.20
2018-05-12T19:35:24.510Z,11.03
2018-05-12T19:37:52.551Z,10.57
2018-05-12T19:40:21.486Z,12.27
2018-05-12T19:42:51.498Z,10.00
2018-05-12T19:45:20.423Z,13.63
2018-05-12T19:47:52.003Z,11.20
2018-05-12T19:50:27.983Z,12.23
2018-05-12T19:52:56.990Z,10.40
2018-05-12T19:55:27.015Z,10.30
2018-05-12T19:58:00.150Z,10.57
2018-05-12T20:00:31.874Z,11.30
2018-05-12T20:02:59.905Z,11.10
2018-05-12T20:05:28.922Z,10.40
2018-05-12T20:07:58.839Z,11.90
2018-05-12T20:10:26.854Z,10.57
2018-05-12T20:12:55.778Z,11.20
2018-05-12T20:15:29.567Z,10.43
2018-05-12T20:17:57.961Z,11.97
2018-05-12T20:20:31.162Z,11.47
2018-05-12T20:23:01.192Z,11.87
2018-05-12T20:25:31.102Z,11.27
2018-05-12T20:27:59.126Z,11.80
2018-05-12T20:30:28.802Z,12.17
2018-05-12T20:32:58.578Z,11.13
2018-05-12T20:35:28.611Z,12.83
2018-05-12T20:37:56.634Z,11.00
2018-05-12T20:40:29.274Z,12.27
2018-05-12T20:43:00.690Z,11.37
2018-05-12T20:45:34.654Z,12.43
2018-05-12T20:48:06.010Z,11.10
2018-05-12T20:50:35.993Z,13.07
2018-05-12T20:53:05.910Z,12.27
2018-05-12T20:55:34.694Z,11.83
2018-05-12T20:58:06.030Z,12.90
2018-05-12T21:00:34.151Z,10.83
2018-05-12T21:03:03.099Z,13.80
2018-05-12T21:05:33.094Z,12.07
2018-05-12T21:08:02.014Z,10.80
2018-05-12T21:10:34.354Z,13.10
2018-05-12T21:13:02.451Z,12.93
2018-05-12T21:15:31.414Z,13.57
2018-05-12T21:18:01.546Z,11.97
2018-05-12T21:20:32.573Z,12.50
2018-05-12T21:23:01.621Z,11.37
2018-05-12T21:25:29.648Z,11.30
2018-05-12T21:27:59.010Z,12.30
2018-05-12T21:30:27.078Z,11.60
2018-05-12T21:32:56.102Z,11.23
2018-05-12T21:35:25.014Z,11.73
2018-05-12T21:37:57.339Z,13.47
2018-05-12T21:40:25.291Z,12.57
2018-05-12T21:42:53.318Z,16.57
2018-05-12T21:45:31.485Z,15.43
2018-05-12T21:47:59.517Z,11.93
2018-05-12T21:50:32.650Z,12.90
2018-05-12T21:53:00.781Z,12.13
2018-05-12T21:55:29.565Z,12.73
2018-05-12T21:57:58.357Z,11.57
2018-05-12T22:00:28.042Z,14.20
2018-05-12T22:03:03.622Z,15.27
2018-05-12T22:05:33.830Z,13.33
2018-05-12T22:08:06.728Z,13.33
2018-05-12T22:10:34.714Z,14.30
2018-05-12T22:13:03.507Z,14.37
2018-05-12T22:15:32.441Z,13.90
2018-05-12T22:18:00.460Z,13.50
2018-05-12T22:20:30.462Z,15.30
2018-05-12T22:23:06.666Z,12.93
2018-05-12T22:25:35.670Z,13.43
2018-05-12T22:28:07.598Z,12.40
2018-05-12T22:30:37.553Z,13.10
2018-05-12T22:33:05.577Z,12.50
2018-05-12T22:35:34.621Z,13.33
2018-05-12T22:38:02.642Z,12.60
2018-05-12T22:40:32.570Z,13.40
2018-05-12T22:43:01.594Z,13.30
2018-05-12T22:45:29.617Z,14.70
2018-05-12T22:48:04.042Z,15.83
2018-05-12T22:50:32.053Z,14.60
2018-05-12T22:53:01.025Z,14.10
2018-05-12T22:55:29.062Z,15.43
2018-05-12T22:57:58.001Z,12.97
2018-05-12T23:00:28.966Z,13.47
2018-05-12T23:02:57.857Z,13.80
2018-05-12T23:05:30.781Z,15.43
2018-05-12T23:08:00.701Z,13.47
2018-05-12T23:10:28.769Z,16.40
2018-05-12T23:12:57.510Z,13.90
2018-05-12T23:15:26.306Z,14.23
2018-05-12T23:17:55.106Z,15.43
2018-05-12T23:20:25.021Z,14.07
2018-05-12T23:23:02.837Z,12.73
2018-05-12T23:25:35.093Z,16.63
2018-05-12T23:28:03.133Z,20.27
2018-05-12T23:30:31.140Z,12.83
2018-05-12T23:32:59.429Z,14.63
2018-05-12T23:35:28.317Z,14.63
2018-05-12T23:38:01.837Z,13.67
2018-05-12T23:40:38.301Z,14.80
2018-05-12T23:43:07.289Z,14.47
2018-05-12T23:45:35.397Z,14.20
2018-05-12T23:48:06.136Z,13.00
2018-05-12T23:50:35.037Z,14.43
2018-05-12T23:53:03.973Z,16.00
2018-05-12T23:55:32.981Z,13.40
2018-05-12T23:58:07.374Z,19.73
